x

N01 - Northeast Channel (44024) Wave Buoy

12:04am - Sat 29th Nov 2014 All times are AST. -4 hours from GMT.

  • Sig Wave height 5.2ft
  • Peak Period 5s
  • Wind
    25mph, 31mph gusts
  • Sea Temp 53°f
  • Air Temp 38°f
  • Sea Pressure 1015.9mb
  • N01 - Northeast Channel
  • N01 - Northeast Channel

More Historic Weather Station data

Upgrade to MSW Pro to gain access to the past 30 days of data for over 8000 Wavebouys and Weather Stations around the globe.

Join Pro

Comparision Forecast

View Surf forecast
   
Sat 11/29 12:04am 5ft 5s 25 31 mph 1015.9mb 53f 38f
Fri 11/28 11:04pm 6ft 11s 20 27 mph 1015.6mb 53f 37f
10:04pm 4.5ft 11s 13 18 mph 1015mb 53f 37f
9:04pm 3.5ft 5s 13 20 mph 1014.2mb 53f 39f
8:04pm 5ft 11s 13 16 mph 1014mb 53f 39f
7:04pm 4.5ft 11s 13 18 mph 1013.2mb 53f 39f
5:04pm  -   -  16 20 mph 1011.9mb - 40f
3:04pm 5ft 11s  -  mph - 53f -
2:04pm 7ft 11s 16 20 mph 1010mb 53f 40f
1:04pm 7.5ft 11s 16 18 mph 1010.4mb 53f 40f
12:04pm 6ft 11s 13 18 mph 1010.9mb 53f 40f
11:04am 6.5ft 11s 16 20 mph 1011.4mb 53f 40f
10:04am 8ft 11s 18 25 mph 1011.5mb 53f 41f
9:04am 8ft 11s 18 22 mph 1011.7mb 53f 40f
8:04am 7ft 11s 18 20 mph 1011.5mb 53f 40f
7:04am 7ft 11s 16 20 mph 1011.6mb 53f 41f
6:04am 8ft 11s 13 20 mph 1011.3mb 53f 40f
5:04am 9.5ft 11s  -  mph - 53f -
4:04am 8ft 11s  -  mph - 53f -
1:04am 10ft 11s 7 9 mph 1012.6mb 53f 39f
12:04am 11ft 11s 9 16 mph 1013.2mb 53f 41f
Thu 11/27 11:04pm 11.5ft 11s 16 25 mph 1012.6mb 53f 41f
10:04pm 12ft 11s 11 16 mph 1013.4mb 52f 41f
9:04pm 10ft 8s 13 20 mph 1013.2mb 52f 41f
8:04pm 14ft 11s 16 25 mph 1012.9mb 52f 42f
6:04pm 15ft 11s 22 29 mph 1011.9mb 53f 41f
5:04pm 17.5ft 11s 27 31 mph 1011mb 52f 42f
4:04pm 16ft 11s 27 34 mph 1010mb 52f 42f
3:04pm 15.5ft 11s  -  mph - 52f -
2:04pm 20ft 11s  -  mph - 52f -
1:04pm 18.5ft 11s  -  mph - 52f -
11:04am  -   -  27 34 mph 1004.7mb - 45f
10:04am 18.5ft 11s 29 38 mph 1003.4mb 52f 46f
9:04am 19.5ft 11s 31 38 mph 1001.1mb 52f 48f
8:04am 18.5ft 11s 36 43 mph 998.3mb 53f 49f
7:04am 18.5ft 11s  -  mph - 53f -
6:04am 18.5ft 11s  -  mph - 53f -
5:04am 17.5ft 11s  -  mph - 53f -
3:04am 13ft 8s 31 40 mph 995.2mb 53f 60f
12:04am 9ft 8s 31 38 mph 999mb 53f 60f
Wed 11/26 10:04pm 8ft 6s 16 18 mph 1002.9mb 53f 58f
7:04pm 10ft 6s 36 47 mph 1008.5mb 53f 49f
6:04pm  -   -  29 38 mph 1011.4mb - 48f
5:04pm 7.5ft 5s 29 36 mph 1013.4mb 53f 49f
4:04pm 6ft 5s 25 31 mph 1014.8mb 53f 49f
3:04pm 6ft 8s 22 27 mph 1016.9mb 53f 49f
2:04pm 5.5ft 8s 22 27 mph 1018.4mb 52f 48f
1:04pm 6ft 8s 20 25 mph 1019.1mb 52f 50f
12:04pm 5.5ft 8s 16 20 mph 1020.1mb 52f 51f
11:04am 6ft 11s 16 18 mph 1021.7mb 52f 51f
10:04am 7ft 11s  -  mph - 52f -
9:04am 6ft 8s  -  mph - 52f -
6:04am 6.5ft 11s 16 18 mph 1020.7mb 52f 52f
5:04am 7ft 11s 16 18 mph 1019.8mb 52f 52f
4:04am 8.5ft 11s 18 22 mph 1019.4mb 52f 53f
3:04am 9ft 11s 16 18 mph 1019.2mb 52f 53f
2:04am 8.5ft 8s 11 13 mph 1018.1mb 52f 53f
1:04am 8ft 8s 16 18 mph 1016.7mb 52f 54f
12:04am 8ft 11s 16 20 mph 1016.7mb 52f 55f
Tue 11/25 11:04pm 9ft 11s 13 16 mph 1015.9mb 52f 54f
10:04pm 9ft 11s 13 16 mph 1015.4mb 52f 54f
9:04pm 9.5ft 11s 13 16 mph 1015.3mb 52f 54f
8:04pm 9ft 11s 16 18 mph 1014.7mb 52f 54f
7:04pm 10ft 11s 16 18 mph 1014mb 52f 54f
6:04pm 9.5ft 11s 13 18 mph 1013.6mb 52f 54f
4:04pm 10.5ft 11s 16 20 mph 1013.6mb 52f 55f
3:04pm  -   -  16 18 mph 1012.6mb - 55f
2:04pm 13.5ft 11s 20 25 mph 1012.8mb 53f 56f
1:04pm 12ft 11s 20 25 mph 1012.1mb 53f 57f
12:04pm  -   -  20 25 mph 1012.6mb - 57f
9:04am  -   -  20 25 mph 1012.9mb - 56f
8:04am 15.5ft 11s 18 22 mph 1011.7mb 52f 55f
7:04am 16ft 11s 16 18 mph 1011.2mb 52f 55f
6:04am 14.5ft 11s 18 22 mph 1010.8mb 52f 58f